Goldthwaite, Texas
Current Conditions -  °F | °C
As of 1:55 PM on Thursday 30 Oct 2014 (Local Time) from KMNZ Reporting Station
Scattered Clouds Scattered Clouds  
Wind Chill: 78°   Ceiling: Unl
Heat Index: 79°   Visibility: 10mi
Dew Point: 60°   Wind: 8mph
Humidity: 54%   Direction: 190°S
Pressure: 30.13"   Gusts: NA
Location:  31.45°N, 98.57°W
Report Text: KMNZ 301855Z AUTO 19007KT 10SM SCT029 25/15 A3013 RMK AO2 T02530154
Loading
Personal Weather Stations






























Interactive Weather Map
Tropical Storm Tracking
New forecast layout! Learn more

10-Day Weather Forecast

Advertisements
Track Severe Weather on mobile